Time;durP1;ratioP1;P1;durP2;ratioP2;P2;SDS_P1;SDS_P2;PMS_P1;PMS_P2;Temp;Humidity;BMP_temperature;BMP_pressure;BME280_temperature;BME280_humidity;BME280_pressure;Samples;Min_cycle;Max_cycle;Signal;HPM_P1;HPM_P2
2022/02/11 00:02:19;;;;;;;15.63;8.00;;;;;3.20;101828.00;;;;10502439;28;20197;-78
2022/02/11 00:07:20;;;;;;;16.83;8.13;;;;;3.20;101841.00;;;;10512018;28;20205;-78
2022/02/11 00:12:23;;;;;;;13.50;8.40;;;;;3.10;101833.00;;;;10480320;28;20219;-78
2022/02/11 00:17:25;;;;;;;13.63;8.23;;;;;3.00;101852.00;;;;10523187;28;20220;-79
2022/02/11 00:22:27;;;;;;;13.07;7.80;;;;;3.00;101858.00;;;;10460651;28;20209;-78
2022/02/11 00:33:03;;;;;;;15.37;7.33;;;;;2.90;101860.00;;;;10511769;28;20189;-78
2022/02/11 00:38:12;;;;;;;13.53;7.13;;;;;2.80;101856.00;;;;10527424;28;20236;-78
2022/02/11 01:04:06;;;;;;;13.13;7.20;;;;;2.30;101870.00;;;;10493967;28;20212;-77
2022/02/11 01:09:12;;;;;;;16.93;7.37;;;;;2.30;101872.00;;;;10506295;28;20181;-76
2022/02/11 01:14:15;;;;;;;13.13;6.80;;;;;2.20;101865.00;;;;10511526;28;20193;-78
2022/02/11 01:30:40;;;;;;;14.77;7.30;;;;;2.10;101873.00;;;;10493311;28;20219;-78
2022/02/11 01:46:17;;;;;;;12.30;6.73;;;;;1.90;101893.00;;;;10506415;28;20189;-78
2022/02/11 02:12:37;;;;;;;12.43;4.40;;;;;2.90;101893.00;;;;10506232;28;20193;-78
2022/02/11 03:58:03;;;;;;;8.13;2.80;;;;;3.30;102025.00;;;;10519963;28;20297;-78
2022/02/11 04:56:22;;;;;;;16.93;4.03;;;;;3.40;102109.00;;;;10496641;28;20184;-76
2022/02/11 05:01:24;;;;;;;10.37;3.67;;;;;3.50;102118.00;;;;10522511;28;20280;-77
2022/02/11 05:06:25;;;;;;;12.47;3.17;;;;;3.60;102129.00;;;;10525582;28;20258;-78
2022/02/11 05:11:28;;;;;;;10.43;3.30;;;;;3.60;102143.00;;;;10492449;28;20238;-78
2022/02/11 05:16:30;;;;;;;12.57;4.30;;;;;3.40;102138.00;;;;10528196;28;20822;-78
2022/02/11 05:21:32;;;;;;;10.87;3.27;;;;;3.20;102154.00;;;;10506232;28;20662;-78
2022/02/11 05:26:34;;;;;;;13.53;3.07;;;;;3.20;102147.00;;;;10467209;28;20657;-77
2022/02/11 05:31:36;;;;;;;9.50;3.50;;;;;3.30;102155.00;;;;10510178;28;20177;-78
2022/02/11 05:36:38;;;;;;;17.07;4.03;;;;;3.30;102160.00;;;;10507971;28;20222;-78
2022/02/11 05:41:40;;;;;;;10.47;4.20;;;;;3.30;102168.00;;;;10540984;28;20193;-78
2022/02/11 05:46:42;;;;;;;14.60;4.27;;;;;3.20;102177.00;;;;10450230;28;20269;-78
2022/02/11 05:51:44;;;;;;;11.53;3.30;;;;;3.30;102177.00;;;;10516993;28;20234;-78
2022/02/11 05:56:46;;;;;;;10.57;3.10;;;;;3.30;102191.00;;;;10510501;28;20291;-78
2022/02/11 06:01:48;;;;;;;12.13;3.37;;;;;3.50;102215.00;;;;10490612;28;20304;-78
2022/02/11 06:06:52;;;;;;;16.60;3.73;;;;;3.60;102206.00;;;;10507120;28;20216;-78
2022/02/11 06:11:54;;;;;;;9.50;3.20;;;;;3.70;102213.00;;;;10540040;28;20586;-78
2022/02/11 06:16:56;;;;;;;13.67;4.10;;;;;3.70;102217.00;;;;10523267;28;20201;-78
2022/02/11 06:21:59;;;;;;;9.93;3.90;;;;;3.70;102218.00;;;;10523874;28;20209;-78
2022/02/11 06:27:00;;;;;;;11.53;2.70;;;;;3.80;102229.00;;;;10528955;28;20231;-78
2022/02/11 06:32:06;;;;;;;8.93;2.57;;;;;3.90;102234.00;;;;10491180;28;20556;-77
2022/02/11 06:37:08;;;;;;;6.50;2.50;;;;;3.80;102244.00;;;;10505983;28;20189;-76
2022/02/11 06:42:10;;;;;;;13.00;3.10;;;;;3.50;102249.00;;;;10520137;28;20224;-76
2022/02/11 06:47:11;;;;;;;11.50;3.37;;;;;3.40;102267.00;;;;10461453;28;20197;-77
2022/02/11 06:52:13;;;;;;;14.70;3.10;;;;;3.40;102289.00;;;;10465202;28;20656;-78
2022/02/11 06:57:15;;;;;;;16.33;3.40;;;;;3.40;102293.00;;;;10489290;28;20190;-78
2022/02/11 07:02:20;;;;;;;12.77;3.10;;;;;3.30;102290.00;;;;10503507;28;20221;-77
2022/02/11 07:07:21;;;;;;;8.30;3.67;;;;;3.20;102290.00;;;;10504192;28;20252;-77
2022/02/11 07:12:23;;;;;;;12.90;3.33;;;;;3.20;102307.00;;;;10495459;28;20201;-77
2022/02/11 07:17:25;;;;;;;7.80;2.60;;;;;3.10;102332.00;;;;10503480;28;20235;-77
2022/02/11 07:22:34;;;;;;;16.50;3.87;;;;;3.10;102351.00;;;;10501352;28;20620;-76
2022/02/11 07:27:37;;;;;;;19.73;4.07;;;;;3.20;102365.00;;;;10498720;28;20196;-76
2022/02/11 07:33:00;;;;;;;13.27;4.00;;;;;3.40;102374.00;;;;10491634;28;20648;-77
2022/02/11 07:38:02;;;;;;;13.33;3.37;;;;;3.70;102388.00;;;;10501533;28;20611;-77
2022/02/11 07:43:05;;;;;;;14.77;3.63;;;;;3.90;102406.00;;;;10523356;28;20192;-77
2022/02/11 07:48:27;;;;;;;16.47;4.03;;;;;4.20;102411.00;;;;10485611;28;20193;-78
2022/02/11 07:53:29;;;;;;;10.13;3.43;;;;;4.30;102429.00;;;;10482164;28;20222;-78
2022/02/11 07:58:31;;;;;;;16.97;3.30;;;;;4.30;102446.00;;;;10515442;28;20716;-77
2022/02/11 08:03:34;;;;;;;14.67;3.40;;;;;4.70;102442.00;;;;10512533;28;20279;-76
2022/02/11 08:08:36;;;;;;;20.43;3.53;;;;;5.20;102459.00;;;;10484359;28;20197;-77
2022/02/11 08:13:38;;;;;;;13.23;3.27;;;;;5.50;102467.00;;;;10489282;28;20729;-77
2022/02/11 08:18:40;;;;;;;12.90;3.17;;;;;5.30;102495.00;;;;10535521;28;20579;-77
2022/02/11 08:23:48;;;;;;;22.90;3.67;;;;;5.20;102502.00;;;;10470593;28;20196;-78
2022/02/11 08:28:50;;;;;;;12.27;3.47;;;;;5.10;102513.00;;;;10541224;28;20185;-78
2022/02/11 08:33:52;;;;;;;16.77;3.70;;;;;5.20;102534.00;;;;10525733;28;20278;-78
2022/02/11 08:38:55;;;;;;;19.00;3.73;;;;;5.40;102545.00;;;;10526819;28;20270;-77
2022/02/11 08:44:01;;;;;;;11.70;2.90;;;;;5.80;102535.00;;;;10508948;28;20193;-78
2022/02/11 08:49:03;;;;;;;14.37;4.03;;;;;5.70;102555.00;;;;10485884;28;20188;-78
2022/02/11 08:54:07;;;;;;;21.90;4.37;;;;;6.30;102537.00;;;;10510493;28;20207;-77
2022/02/11 08:59:09;;;;;;;15.93;4.17;;;;;6.90;102543.00;;;;10534128;28;20224;-78
2022/02/11 09:04:11;;;;;;;18.47;3.60;;;;;6.80;102550.00;;;;10476743;28;20220;-78
2022/02/11 09:09:16;;;;;;;18.60;3.70;;;;;7.00;102550.00;;;;10522269;28;20206;-77
2022/02/11 09:14:18;;;;;;;13.10;3.60;;;;;7.20;102539.00;;;;10508399;28;20193;-77
2022/02/11 09:19:22;;;;;;;13.90;4.40;;;;;7.40;102546.00;;;;10493573;28;20714;-78
2022/02/11 09:24:24;;;;;;;16.27;4.33;;;;;7.60;102559.00;;;;10532134;28;20200;-78
2022/02/11 09:29:25;;;;;;;14.87;3.77;;;;;7.90;102559.00;;;;10506364;28;20251;-78
2022/02/11 09:34:27;;;;;;;9.10;2.77;;;;;7.90;102567.00;;;;10515416;28;20192;-78
2022/02/11 09:39:29;;;;;;;14.20;3.50;;;;;8.10;102580.00;;;;10501286;28;20236;-78
2022/02/11 09:44:32;;;;;;;15.67;2.93;;;;;8.10;102595.00;;;;10508690;28;20247;-78
2022/02/11 09:49:34;;;;;;;12.97;3.07;;;;;7.70;102604.00;;;;10525376;28;20664;-78
2022/02/11 09:54:35;;;;;;;9.27;2.83;;;;;7.50;102611.00;;;;10508390;28;20188;-77
2022/02/11 09:59:37;;;;;;;12.33;3.50;;;;;7.40;102615.00;;;;10498487;28;20200;-77
2022/02/11 10:04:54;;;;;;;11.03;3.10;;;;;8.20;102623.00;;;;10478829;28;20240;-78
2022/02/11 10:09:55;;;;;;;9.97;3.60;;;;;8.30;102638.00;;;;10513842;28;20717;-77
2022/02/11 10:14:58;;;;;;;10.27;3.27;;;;;8.50;102646.00;;;;10504443;28;20212;-77
2022/02/11 10:20:00;;;;;;;12.13;3.73;;;;;8.90;102656.00;;;;10505918;28;20217;-78
2022/02/11 10:25:03;;;;;;;18.77;4.03;;;;;8.90;102670.00;;;;10498871;28;20683;-77
2022/02/11 10:30:09;;;;;;;15.20;3.83;;;;;9.30;102658.00;;;;10531646;28;20280;-77
2022/02/11 10:35:14;;;;;;;17.43;3.67;;;;;9.80;102678.00;;;;10498070;28;20192;-77
2022/02/11 10:40:30;;;;;;;12.30;3.40;;;;;10.00;102691.00;;;;10483067;28;20201;-77
2022/02/11 10:45:37;;;;;;;14.77;3.40;;;;;10.10;102699.00;;;;10554755;28;20242;-78
2022/02/11 10:50:44;;;;;;;16.63;3.53;;;;;9.50;102713.00;;;;10505130;28;20286;-77
2022/02/11 10:55:50;;;;;;;7.13;2.17;;;;;8.80;102705.00;;;;10509540;28;20189;-78
2022/02/11 11:00:52;;;;;;;11.53;2.37;;;;;8.50;102720.00;;;;10503726;28;20196;-77
2022/02/11 11:05:55;;;;;;;14.87;3.20;;;;;8.70;102733.00;;;;10482910;28;20213;-78
2022/02/11 11:11:00;;;;;;;9.30;2.33;;;;;8.40;102748.00;;;;10538205;28;20279;-77
2022/02/11 11:16:06;;;;;;;15.47;2.93;;;;;7.50;102751.00;;;;10516219;28;20464;-77
2022/02/11 11:21:10;;;;;;;13.80;2.67;;;;;7.10;102741.00;;;;10498284;28;20292;-78
2022/02/11 11:26:12;;;;;;;9.67;2.40;;;;;7.10;102750.00;;;;10551116;28;20199;-77
2022/02/11 11:31:28;;;;;;;10.63;2.80;;;;;7.10;102754.00;;;;10515449;28;20704;-77
2022/02/11 11:36:33;;;;;;;9.93;2.70;;;;;8.20;102744.00;;;;10519208;28;20218;-77
2022/02/11 11:41:41;;;;;;;8.83;2.27;;;;;9.50;102754.00;;;;10543120;28;20702;-78
2022/02/11 11:46:47;;;;;;;11.73;2.30;;;;;8.00;102772.00;;;;10538608;28;20201;-78
2022/02/11 11:51:49;;;;;;;9.33;2.10;;;;;7.70;102752.00;;;;10518651;28;20205;-78
2022/02/11 11:57:03;;;;;;;7.40;1.70;;;;;8.60;102754.00;;;;10545098;28;20560;-78
2022/02/11 12:02:27;;;;;;;7.77;2.30;;;;;9.40;102760.00;;;;10521464;28;20212;-78
2022/02/11 12:07:34;;;;;;;12.10;2.10;;;;;10.70;102760.00;;;;10544486;28;20218;-78
2022/02/11 12:12:36;;;;;;;11.53;3.00;;;;;10.80;102764.00;;;;10508044;28;20201;-77
2022/02/11 12:17:42;;;;;;;10.77;1.90;;;;;9.80;102775.00;;;;10561915;28;20271;-78
2022/02/11 12:27:20;;;;;;;17.07;3.13;;;;;8.00;102804.00;;;;10540190;28;20286;-78
2022/02/11 12:28:06;;;;;;;12.10;3.50;;;;;7.30;102794.00;;;;10524886;28;20196;-78
2022/02/11 12:33:08;;;;;;;4.70;1.83;;;;;7.30;102782.00;;;;10527498;28;20220;-77
2022/02/11 12:38:10;;;;;;;11.37;2.70;;;;;7.60;102788.00;;;;10506961;28;20219;-77
2022/02/11 12:43:13;;;;;;;12.77;2.70;;;;;8.00;102788.00;;;;10527973;28;20208;-78
2022/02/11 12:48:15;;;;;;;13.80;2.77;;;;;7.50;102781.00;;;;10494059;28;20221;-78
2022/02/11 12:53:17;;;;;;;7.93;2.27;;;;;7.50;102784.00;;;;10504208;28;20566;-77
2022/02/11 12:58:20;;;;;;;15.80;2.90;;;;;7.30;102768.00;;;;10499677;28;20225;-77
2022/02/11 13:03:22;;;;;;;11.73;2.40;;;;;8.50;102782.00;;;;10511309;28;20534;-77
2022/02/11 13:08:27;;;;;;;14.17;2.43;;;;;9.10;102784.00;;;;10510973;28;20798;-77
2022/02/11 13:13:30;;;;;;;7.80;2.53;;;;;9.60;102783.00;;;;10507564;28;20220;-78
2022/02/11 13:18:35;;;;;;;15.83;2.50;;;;;9.90;102769.00;;;;10489133;28;20273;-77
2022/02/11 13:23:39;;;;;;;11.53;2.23;;;;;9.90;102772.00;;;;10533505;28;20189;-77
2022/02/11 13:28:49;;;;;;;12.73;3.07;;;;;9.90;102778.00;;;;10522050;28;20674;-77
2022/02/11 13:34:08;;;;;;;10.77;2.50;;;;;10.00;102766.00;;;;10523446;28;20208;-77
2022/02/11 13:39:23;;;;;;;10.30;2.83;;;;;10.10;102772.00;;;;10499722;28;20261;-78
2022/02/11 13:44:25;;;;;;;14.03;2.87;;;;;10.60;102771.00;;;;10518698;28;20258;-77
2022/02/11 13:49:38;;;;;;;7.60;2.10;;;;;11.20;102757.00;;;;10537170;28;20191;-78
2022/02/11 13:54:59;;;;;;;12.00;3.00;;;;;11.80;102760.00;;;;10497505;28;20250;-78
2022/02/11 14:00:37;;;;;;;12.90;2.83;;;;;11.20;102781.00;;;;10540192;28;20291;-77
2022/02/11 14:05:43;;;;;;;11.27;2.73;;;;;9.20;102794.00;;;;10520454;28;20578;-77
2022/02/11 14:10:48;;;;;;;12.30;2.70;;;;;8.10;102807.00;;;;10516082;28;20272;-78
2022/02/11 14:15:50;;;;;;;9.93;2.23;;;;;7.70;102801.00;;;;10511199;28;20299;-77
2022/02/11 14:20:51;;;;;;;10.47;2.43;;;;;7.50;102801.00;;;;10506193;28;20236;-77
2022/02/11 14:25:55;;;;;;;6.53;1.90;;;;;7.30;102802.00;;;;10489891;28;20543;-77
2022/02/11 14:30:57;;;;;;;8.47;2.00;;;;;7.40;102803.00;;;;10496383;28;20193;-77
2022/02/11 14:35:59;;;;;;;11.60;2.00;;;;;7.30;102806.00;;;;10550392;28;20268;-77
2022/02/11 14:46:23;;;;;;;7.27;1.70;;;;;7.20;102807.00;;;;10474605;28;20336;-77
2022/02/11 14:51:25;;;;;;;12.93;2.57;;;;;7.50;102811.00;;;;10503158;28;20519;-77
2022/02/11 14:56:27;;;;;;;12.00;2.40;;;;;8.50;102804.00;;;;10521318;28;20268;-77
2022/02/11 15:01:29;;;;;;;10.50;2.77;;;;;8.20;102815.00;;;;10531573;28;20227;-77
2022/02/11 15:06:32;;;;;;;13.00;2.67;;;;;8.20;102816.00;;;;10503271;28;20216;-77
2022/02/11 15:11:35;;;;;;;17.17;2.73;;;;;7.50;102819.00;;;;10470937;28;20284;-77
2022/02/11 15:16:37;;;;;;;9.87;2.37;;;;;6.90;102819.00;;;;10446276;28;20210;-77
2022/02/11 15:21:40;;;;;;;10.37;2.80;;;;;8.60;102768.00;;;;10502599;28;20296;-78
2022/02/11 15:26:42;;;;;;;13.20;2.87;;;;;11.00;102753.00;;;;10505450;28;20197;-77
2022/02/11 15:31:44;;;;;;;9.50;2.57;;;;;10.70;102784.00;;;;10521502;28;20220;-78
2022/02/11 15:36:48;;;;;;;15.90;2.90;;;;;9.70;102811.00;;;;10479482;28;20665;-78
2022/02/11 15:41:50;;;;;;;9.13;2.77;;;;;8.50;102811.00;;;;10519764;28;20673;-77
2022/02/11 15:46:53;;;;;;;7.87;2.90;;;;;8.40;102807.00;;;;10529163;28;20220;-77
2022/02/11 15:51:55;;;;;;;11.27;2.87;;;;;7.40;102817.00;;;;10487058;28;20185;-78
2022/02/11 15:57:03;;;;;;;12.47;2.57;;;;;6.90;102821.00;;;;10528776;28;20196;-77
2022/02/11 16:02:05;;;;;;;9.10;2.60;;;;;6.50;102821.00;;;;10528874;28;20283;-77
2022/02/11 16:07:07;;;;;;;9.37;2.90;;;;;6.30;102812.00;;;;10535019;28;20209;-78
2022/02/11 16:12:10;;;;;;;12.63;2.90;;;;;6.10;102821.00;;;;10486499;28;20189;-78
2022/02/11 16:17:12;;;;;;;15.43;7.77;;;;;5.80;102824.00;;;;10526706;28;20636;-78
2022/02/11 16:22:14;;;;;;;16.40;6.63;;;;;5.70;102821.00;;;;10490917;28;20213;-78
2022/02/11 16:27:17;;;;;;;16.70;3.20;;;;;5.60;102808.00;;;;10493873;28;20204;-77
2022/02/11 16:32:19;;;;;;;10.33;3.10;;;;;5.50;102823.00;;;;10526353;28;20189;-78
2022/02/11 16:37:21;;;;;;;15.97;3.27;;;;;5.20;102821.00;;;;10498053;28;20287;-78
2022/02/11 16:42:23;;;;;;;14.97;2.93;;;;;4.90;102815.00;;;;10510066;28;20265;-78
2022/02/11 16:47:25;;;;;;;11.67;3.00;;;;;4.70;102826.00;;;;10518567;28;20241;-77
2022/02/11 16:52:27;;;;;;;15.23;2.70;;;;;4.40;102820.00;;;;10536486;28;20199;-78
2022/02/11 16:57:31;;;;;;;16.40;4.13;;;;;4.10;102823.00;;;;10527605;28;20185;-78
2022/02/11 17:02:33;;;;;;;10.07;3.17;;;;;3.90;102829.00;;;;10507935;28;20571;-78
2022/02/11 17:07:35;;;;;;;12.73;3.07;;;;;3.70;102837.00;;;;10487791;28;20209;-78
2022/02/11 17:12:38;;;;;;;9.67;2.87;;;;;3.60;102831.00;;;;10519172;28;20196;-78
2022/02/11 17:17:41;;;;;;;16.00;3.10;;;;;3.50;102842.00;;;;10530969;28;20206;-77
2022/02/11 17:22:44;;;;;;;13.37;3.80;;;;;3.30;102847.00;;;;10524628;28;20320;-78
2022/02/11 17:27:46;;;;;;;12.83;3.83;;;;;3.20;102847.00;;;;10520222;28;20579;-78
2022/02/11 17:32:50;;;;;;;9.37;3.20;;;;;3.10;102843.00;;;;10528867;28;20173;-78
2022/02/11 17:37:51;;;;;;;17.20;3.60;;;;;3.00;102845.00;;;;10504816;28;20200;-78
2022/02/11 17:42:54;;;;;;;17.80;2.67;;;;;2.80;102868.00;;;;10483449;28;20259;-78
2022/02/11 17:47:56;;;;;;;11.50;4.17;;;;;2.60;102856.00;;;;10488550;28;20211;-78
2022/02/11 17:53:01;;;;;;;18.43;4.10;;;;;2.50;102856.00;;;;10490610;28;20194;-78
2022/02/11 17:58:03;;;;;;;17.90;5.27;;;;;2.30;102864.00;;;;10496190;28;20197;-78
2022/02/11 18:03:05;;;;;;;12.60;4.47;;;;;2.20;102866.00;;;;10508530;28;20205;-78
2022/02/11 18:08:07;;;;;;;11.90;4.13;;;;;2.00;102867.00;;;;10474518;28;20209;-78
2022/02/11 18:13:11;;;;;;;15.40;4.17;;;;;2.00;102868.00;;;;10501000;28;20231;-77
2022/02/11 18:18:13;;;;;;;13.03;4.03;;;;;1.90;102888.00;;;;10499899;28;20209;-78
2022/02/11 18:23:15;;;;;;;16.90;4.93;;;;;1.70;102882.00;;;;10519079;28;20200;-77
2022/02/11 18:28:17;;;;;;;13.70;5.20;;;;;1.70;102880.00;;;;10485011;28;20667;-78
2022/02/11 18:33:19;;;;;;;18.83;4.60;;;;;1.60;102883.00;;;;10493616;28;20197;-77
2022/02/11 18:38:25;;;;;;;16.67;4.30;;;;;1.50;102881.00;;;;10500614;28;20293;-78
2022/02/11 18:43:30;;;;;;;14.47;4.83;;;;;1.40;102885.00;;;;10487346;28;20212;-78
2022/02/11 18:48:33;;;;;;;15.77;3.67;;;;;1.40;102886.00;;;;10504726;28;20215;-78
2022/02/11 18:53:35;;;;;;;14.90;5.10;;;;;1.30;102901.00;;;;10521706;28;20692;-78
2022/02/11 18:58:38;;;;;;;25.07;8.17;;;;;1.20;102898.00;;;;10496201;28;20227;-78
2022/02/11 19:03:42;;;;;;;19.73;5.50;;;;;1.10;102895.00;;;;10505959;28;20213;-78
2022/02/11 19:08:43;;;;;;;17.60;6.03;;;;;1.10;102891.00;;;;10514161;28;21822;-78
2022/02/11 19:13:45;;;;;;;14.00;5.23;;;;;1.00;102891.00;;;;10517748;28;20710;-77
2022/02/11 19:18:47;;;;;;;20.33;5.60;;;;;0.90;102895.00;;;;10519007;28;20220;-78
2022/02/11 19:23:49;;;;;;;23.33;6.30;;;;;0.80;102895.00;;;;10532195;28;20228;-78
2022/02/11 19:28:51;;;;;;;20.83;8.07;;;;;0.70;102885.00;;;;10535962;28;20238;-78
2022/02/11 19:33:53;;;;;;;14.47;6.70;;;;;0.70;102891.00;;;;10508758;28;20193;-77
2022/02/11 19:38:55;;;;;;;21.33;6.47;;;;;0.60;102890.00;;;;10529530;28;20205;-78
2022/02/11 19:43:57;;;;;;;17.03;7.20;;;;;0.60;102884.00;;;;10502211;28;20667;-77
2022/02/11 19:48:59;;;;;;;23.00;9.57;;;;;0.60;102889.00;;;;10490430;28;20210;-77
2022/02/11 19:54:01;;;;;;;18.30;7.43;;;;;0.60;102890.00;;;;10479179;28;20185;-77
2022/02/11 19:59:04;;;;;;;17.37;9.17;;;;;0.50;102882.00;;;;10502542;28;20189;-77
2022/02/11 20:04:06;;;;;;;25.40;10.83;;;;;0.40;102886.00;;;;10481747;28;20296;-77
2022/02/11 20:09:08;;;;;;;24.83;10.27;;;;;0.30;102882.00;;;;10477459;28;20194;-78
2022/02/11 20:14:10;;;;;;;17.50;8.50;;;;;0.30;102886.00;;;;10501899;28;20705;-78
2022/02/11 20:19:12;;;;;;;29.03;10.93;;;;;0.20;102890.00;;;;10494666;28;20285;-78
2022/02/11 20:24:16;;;;;;;34.13;11.97;;;;;0.20;102896.00;;;;10520677;28;20350;-78
2022/02/11 20:29:18;;;;;;;20.47;8.80;;;;;0.10;102895.00;;;;10510693;28;20196;-78
2022/02/11 20:34:20;;;;;;;25.77;10.13;;;;;0.00;102897.00;;;;10535107;28;20192;-78
2022/02/11 20:39:22;;;;;;;26.07;10.67;;;;;-0.10;102879.00;;;;10530030;28;20197;-79
2022/02/11 20:44:26;;;;;;;31.53;11.97;;;;;0.00;102888.00;;;;10482155;28;20197;-77
2022/02/11 20:49:28;;;;;;;34.43;13.10;;;;;0.00;102878.00;;;;10492952;28;20185;-78
2022/02/11 20:54:30;;;;;;;29.07;13.80;;;;;-0.10;102896.00;;;;10506221;28;20220;-78
2022/02/11 20:59:34;;;;;;;26.67;12.50;;;;;-0.20;102897.00;;;;10526283;28;20208;-78
2022/02/11 21:05:12;;;;;;;33.13;14.60;;;;;-0.30;102889.00;;;;10521164;28;20637;-79
2022/02/11 21:10:37;;;;;;;35.53;13.80;;;;;-0.40;102895.00;;;;10479979;28;20193;-78
2022/02/11 21:15:39;;;;;;;30.77;15.17;;;;;-0.40;102885.00;;;;10449107;28;20201;-78
2022/02/11 21:20:41;;;;;;;31.70;14.93;;;;;-0.50;102890.00;;;;10485711;28;20206;-78
2022/02/11 21:25:45;;;;;;;39.87;17.43;;;;;-0.60;102884.00;;;;10497410;28;20198;-78
2022/02/11 21:30:53;;;;;;;46.43;16.60;;;;;-0.60;102888.00;;;;10496624;28;20197;-78
2022/02/11 21:36:16;;;;;;;33.10;16.17;;;;;-0.70;102886.00;;;;10507142;28;20189;-78
2022/02/11 21:41:18;;;;;;;33.50;14.60;;;;;-0.70;102882.00;;;;10517307;28;20300;-78
2022/02/11 21:46:20;;;;;;;33.60;14.77;;;;;-0.70;102897.00;;;;10498652;28;20272;-78
2022/02/11 21:51:22;;;;;;;26.63;13.30;;;;;-0.80;102890.00;;;;10480383;28;20197;-79
2022/02/11 21:56:24;;;;;;;32.23;13.97;;;;;-0.80;102875.00;;;;10511081;28;21225;-78
2022/02/11 22:01:26;;;;;;;28.90;13.00;;;;;-0.90;102881.00;;;;10525235;28;20331;-78
2022/02/11 22:06:28;;;;;;;19.43;11.90;;;;;-0.90;102880.00;;;;10504457;28;20293;-78
2022/02/11 22:11:33;;;;;;;23.77;10.13;;;;;-0.90;102872.00;;;;10530568;28;20242;-78
2022/02/11 22:16:36;;;;;;;23.80;10.07;;;;;-0.90;102868.00;;;;10482116;28;20208;-78
2022/02/11 22:21:39;;;;;;;30.70;11.87;;;;;-1.00;102856.00;;;;10519129;28;20208;-78
2022/02/11 22:26:42;;;;;;;25.33;11.10;;;;;-1.00;102855.00;;;;10500294;28;20292;-78
2022/02/11 22:31:46;;;;;;;24.27;11.17;;;;;-1.00;102866.00;;;;10493421;28;20265;-78
2022/02/11 22:36:49;;;;;;;24.57;10.80;;;;;-1.00;102862.00;;;;10507554;28;20284;-78
2022/02/11 22:42:12;;;;;;;24.13;10.50;;;;;-1.00;102874.00;;;;10480456;28;20215;-78
2022/02/11 22:47:15;;;;;;;26.10;11.40;;;;;-1.00;102866.00;;;;10505952;28;20196;-78
2022/02/11 22:57:43;;;;;;;29.03;10.57;;;;;-1.00;102868.00;;;;10512930;28;20205;-78
2022/02/11 23:02:45;;;;;;;27.37;10.20;;;;;-0.90;102858.00;;;;10481018;28;20215;-78
2022/02/11 23:07:47;;;;;;;28.70;13.30;;;;;-0.90;102859.00;;;;10467248;28;20291;-78
2022/02/11 23:12:50;;;;;;;22.23;10.23;;;;;-1.00;102853.00;;;;10489154;28;20784;-78
2022/02/11 23:17:57;;;;;;;26.67;11.10;;;;;-0.90;102836.00;;;;10510463;28;20208;-78
2022/02/11 23:23:04;;;;;;;29.87;9.50;;;;;-0.70;102838.00;;;;10507629;28;20283;-78
2022/02/11 23:28:06;;;;;;;25.57;9.40;;;;;-0.50;102834.00;;;;10496634;28;20735;-78
2022/02/11 23:33:11;;;;;;;19.67;8.93;;;;;-0.40;102829.00;;;;10495926;28;20193;-79
2022/02/11 23:38:14;;;;;;;26.57;10.23;;;;;-0.40;102816.00;;;;10507668;28;20192;-79
2022/02/11 23:43:16;;;;;;;25.10;9.23;;;;;-0.40;102819.00;;;;10517425;28;20253;-78
2022/02/11 23:48:19;;;;;;;25.03;10.63;;;;;-0.50;102806.00;;;;10516193;28;20189;-78
2022/02/11 23:53:22;;;;;;;27.17;10.07;;;;;-0.60;102813.00;;;;10519667;28;20727;-78
2022/02/11 23:58:26;;;;;;;26.47;10.97;;;;;-0.40;102811.00;;;;10532824;28;20296;-79
